createdAt,value
2019-01-31T00:01:40.275Z,-1.72
2019-01-31T00:04:25.923Z,-1.69
2019-01-31T00:07:12.952Z,-1.67
2019-01-31T00:09:58.808Z,-1.67
2019-01-31T00:12:57.687Z,-1.66
2019-01-31T00:15:34.085Z,-1.61
2019-01-31T00:18:04.808Z,-1.58
2019-01-31T00:21:07.009Z,-1.59
2019-01-31T00:23:39.163Z,-1.58
2019-01-31T00:26:24.348Z,-1.58
2019-01-31T00:29:23.373Z,-1.57
2019-01-31T00:32:19.582Z,-1.56
2019-01-31T00:35:12.848Z,-1.51
2019-01-31T00:37:43.904Z,-1.54
2019-01-31T00:40:46.833Z,-1.51
2019-01-31T00:43:18.719Z,-1.49
2019-01-31T00:45:59.171Z,-1.49
2019-01-31T00:48:44.941Z,-1.52
2019-01-31T00:51:19.194Z,-1.48
2019-01-31T00:53:59.253Z,-1.47
2019-01-31T00:56:42.462Z,-1.45
2019-01-31T00:59:45.370Z,-1.44
2019-01-31T01:02:31.264Z,-1.45
2019-01-31T01:05:24.617Z,-1.46
2019-01-31T01:08:08.552Z,-1.45
2019-01-31T01:11:04.773Z,-1.44
2019-01-31T01:13:47.964Z,-1.44
2019-01-31T01:16:34.004Z,-1.48
2019-01-31T01:19:13.752Z,-1.48
2019-01-31T01:22:00.779Z,-1.42
2019-01-31T01:24:35.277Z,-1.34
2019-01-31T01:27:19.847Z,-1.35
2019-01-31T01:30:05.604Z,-1.35
2019-01-31T01:33:02.085Z,-1.38
2019-01-31T01:35:36.268Z,-1.38
2019-01-31T01:38:30.877Z,-1.36
2019-01-31T01:41:16.811Z,-1.34
2019-01-31T01:43:59.079Z,-1.30
2019-01-31T01:46:34.291Z,-1.25
2019-01-31T01:49:12.064Z,-1.27
2019-01-31T01:51:59.085Z,-1.27
2019-01-31T01:54:52.304Z,-1.31
2019-01-31T01:57:42.486Z,-1.34
2019-01-31T02:00:19.549Z,-1.30
2019-01-31T02:02:58.163Z,-1.33
2019-01-31T02:05:48.263Z,-1.25
2019-01-31T02:08:34.376Z,-1.30
2019-01-31T02:11:24.297Z,-1.29
2019-01-31T02:14:20.257Z,-1.24
2019-01-31T02:17:07.285Z,-1.23
2019-01-31T02:19:54.381Z,-1.11
2019-01-31T02:22:44.576Z,-1.09
2019-01-31T02:25:18.369Z,-1.07
2019-01-31T02:28:17.603Z,-1.08
2019-01-31T02:30:55.170Z,-1.06
2019-01-31T02:33:37.775Z,-1.06
2019-01-31T02:36:24.799Z,-1.16
2019-01-31T02:39:08.330Z,-1.29
2019-01-31T02:42:01.404Z,-1.32
2019-01-31T02:44:47.414Z,-1.36
2019-01-31T02:47:37.841Z,-1.38
2019-01-31T02:50:24.873Z,-1.40
2019-01-31T02:53:27.425Z,-1.40
2019-01-31T02:56:33.125Z,-1.41
2019-01-31T02:59:05.680Z,-1.44
2019-01-31T03:01:37.355Z,-1.47
2019-01-31T03:04:30.227Z,-1.49
2019-01-31T03:07:07.909Z,-1.47
2019-01-31T03:09:58.063Z,-1.48
2019-01-31T03:12:39.051Z,-1.45
2019-01-31T03:15:19.116Z,-1.38
2019-01-31T03:17:54.454Z,-1.29
2019-01-31T03:20:50.700Z,-1.31
2019-01-31T03:23:41.074Z,-1.37
2019-01-31T03:26:27.305Z,-1.43
2019-01-31T03:29:23.517Z,-1.41
2019-01-31T03:32:01.733Z,-1.41
2019-01-31T03:34:50.029Z,-1.41
2019-01-31T03:37:27.401Z,-1.40
2019-01-31T03:40:32.889Z,-1.43
2019-01-31T03:43:16.287Z,-1.42
2019-01-31T03:46:02.225Z,-1.38
2019-01-31T03:48:48.269Z,-1.31
2019-01-31T03:51:38.477Z,-1.24
2019-01-31T03:54:15.389Z,-1.30
2019-01-31T03:56:51.921Z,-1.32
2019-01-31T03:59:39.130Z,-1.39
2019-01-31T04:02:35.026Z,-1.43
2019-01-31T04:05:06.821Z,-1.44
2019-01-31T04:07:34.855Z,-1.42
2019-01-31T04:10:03.234Z,-1.41
2019-01-31T04:12:33.074Z,-1.41
2019-01-31T04:15:00.995Z,-1.39
2019-01-31T04:17:28.933Z,-1.39
2019-01-31T04:19:57.010Z,-1.38
2019-01-31T04:22:24.854Z,-1.37
2019-01-31T04:24:52.640Z,-1.30
2019-01-31T04:27:20.474Z,-1.32
2019-01-31T04:29:48.233Z,-1.27
2019-01-31T04:32:16.233Z,-1.23
2019-01-31T04:34:43.985Z,-1.20
2019-01-31T04:37:11.840Z,-1.15
2019-01-31T04:39:39.608Z,-1.06
2019-01-31T04:42:07.470Z,-1.04
2019-01-31T04:44:35.247Z,-1.02
2019-01-31T04:47:03.089Z,-0.95
2019-01-31T04:49:30.847Z,-0.83
2019-01-31T04:51:58.660Z,-0.82
2019-01-31T04:54:26.496Z,-0.76
2019-01-31T04:56:54.270Z,-0.80
2019-01-31T04:59:22.134Z,-0.77
2019-01-31T05:01:50.020Z,-0.74
2019-01-31T05:04:17.787Z,-0.78
2019-01-31T05:06:45.552Z,-0.70
2019-01-31T05:09:13.304Z,-0.84
2019-01-31T05:11:41.113Z,-0.97
2019-01-31T05:14:08.945Z,-0.87
2019-01-31T05:16:36.709Z,-0.90
2019-01-31T05:19:04.607Z,-1.03
2019-01-31T05:21:32.718Z,-1.12
2019-01-31T05:24:02.943Z,-1.00
2019-01-31T05:26:31.260Z,-1.03
2019-01-31T05:29:00.026Z,-0.89
2019-01-31T05:31:29.671Z,-0.90
2019-01-31T05:33:57.688Z,-0.83
2019-01-31T05:36:25.438Z,-0.88
2019-01-31T05:38:53.290Z,-0.91
2019-01-31T05:41:21.061Z,-0.93
2019-01-31T05:43:48.902Z,-0.90
2019-01-31T05:46:18.396Z,-0.88
2019-01-31T05:48:47.461Z,-0.82
2019-01-31T05:51:16.527Z,-0.68
2019-01-31T05:53:46.066Z,-0.61
2019-01-31T05:56:14.355Z,-0.45
2019-01-31T05:58:42.133Z,-0.41
2019-01-31T06:01:10.046Z,-0.53
2019-01-31T06:03:37.818Z,-0.55
2019-01-31T06:06:06.029Z,-0.51
2019-01-31T06:08:33.777Z,-0.58
2019-01-31T06:11:07.679Z,-0.61
2019-01-31T06:13:32.735Z,-0.70
2019-01-31T06:16:01.628Z,-1.07
2019-01-31T06:18:31.102Z,-1.21
2019-01-31T06:20:59.502Z,-1.13
2019-01-31T06:23:27.349Z,-0.95
2019-01-31T06:25:55.473Z,-0.92
2019-01-31T06:28:23.223Z,-0.96
2019-01-31T06:30:50.997Z,-1.06
2019-01-31T06:33:19.002Z,-1.14
2019-01-31T06:35:47.698Z,-1.21
2019-01-31T06:38:16.749Z,-1.22
2019-01-31T06:40:45.893Z,-1.27
2019-01-31T06:43:14.861Z,-1.30
2019-01-31T06:45:42.705Z,-1.31
2019-01-31T06:48:10.473Z,-1.31
2019-01-31T06:50:38.229Z,-1.31
2019-01-31T06:53:06.141Z,-1.38
2019-01-31T06:55:33.884Z,-1.40
2019-01-31T06:58:01.924Z,-1.39
2019-01-31T07:00:29.985Z,-1.43
2019-01-31T07:02:57.839Z,-1.51
2019-01-31T07:05:25.579Z,-1.58
2019-01-31T07:07:53.564Z,-1.71
2019-01-31T07:10:22.695Z,-1.84
2019-01-31T07:12:50.448Z,-1.93
2019-01-31T07:15:18.239Z,-2.03
2019-01-31T07:17:46.068Z,-1.81
2019-01-31T07:20:14.354Z,-1.89
2019-01-31T07:22:42.461Z,-1.77
2019-01-31T07:25:12.071Z,-1.80
2019-01-31T07:27:39.912Z,-1.86
2019-01-31T07:30:08.521Z,-1.92
2019-01-31T07:32:36.264Z,-1.87
2019-01-31T07:35:04.769Z,-1.80
2019-01-31T07:37:33.449Z,-1.92
2019-01-31T07:40:01.506Z,-1.96
2019-01-31T07:42:29.359Z,-2.21
2019-01-31T07:44:57.545Z,-2.41
2019-01-31T07:47:25.304Z,-2.42
2019-01-31T07:49:53.051Z,-2.21
2019-01-31T07:52:20.936Z,-2.13
2019-01-31T07:54:48.697Z,-2.17
2019-01-31T07:57:16.769Z,-2.18
2019-01-31T07:59:44.572Z,-2.17
2019-01-31T08:02:12.369Z,-1.97
2019-01-31T08:04:40.174Z,-1.68
2019-01-31T08:07:08.037Z,-1.57
2019-01-31T08:09:35.810Z,-1.63
2019-01-31T08:12:03.557Z,-1.59
2019-01-31T08:14:31.381Z,-1.79
2019-01-31T08:16:59.151Z,-1.68
2019-01-31T08:19:26.900Z,-1.55
2019-01-31T08:21:54.815Z,-1.43
2019-01-31T08:24:22.940Z,-1.30
2019-01-31T08:26:50.694Z,-1.08
2019-01-31T08:29:18.488Z,-0.90
2019-01-31T08:31:46.248Z,-0.80
2019-01-31T08:34:14.020Z,-0.63
2019-01-31T08:36:41.906Z,-0.46
2019-01-31T08:39:09.825Z,-0.45
2019-01-31T08:41:37.637Z,-0.34
2019-01-31T08:44:06.189Z,-0.40
2019-01-31T08:46:33.969Z,-0.43
2019-01-31T08:49:01.718Z,-0.28
2019-01-31T08:51:29.564Z,-0.24
2019-01-31T08:53:57.304Z,-0.15
2019-01-31T08:56:25.368Z,-0.20
2019-01-31T08:58:53.160Z,-0.11
2019-01-31T09:01:20.996Z,-0.04
2019-01-31T09:03:48.779Z,-0.01
2019-01-31T09:06:16.570Z,0.18
2019-01-31T09:08:44.322Z,0.28
2019-01-31T09:11:12.090Z,-0.02
2019-01-31T09:13:40.724Z,-0.14
2019-01-31T09:16:08.785Z,-0.01
2019-01-31T09:18:36.547Z,-0.12
2019-01-31T09:21:16.210Z,-0.09
2019-01-31T09:23:59.137Z,-0.03
2019-01-31T09:26:34.780Z,0.11
2019-01-31T09:29:14.512Z,0.31
2019-01-31T09:32:00.414Z,0.50
2019-01-31T09:34:34.819Z,0.55
2019-01-31T09:37:15.939Z,0.66
2019-01-31T09:39:51.017Z,0.69
2019-01-31T09:42:26.699Z,0.62
2019-01-31T09:45:23.349Z,0.49
2019-01-31T09:48:12.468Z,0.71
2019-01-31T09:50:59.599Z,0.65
2019-01-31T09:53:36.715Z,0.70
2019-01-31T09:56:22.914Z,0.62
2019-01-31T09:59:09.938Z,0.64
2019-01-31T10:01:52.637Z,0.55
2019-01-31T10:04:52.213Z,0.72
2019-01-31T10:07:38.064Z,0.81
2019-01-31T10:10:19.655Z,0.66
2019-01-31T10:13:18.988Z,0.91
2019-01-31T10:16:12.078Z,1.04
2019-01-31T10:19:05.050Z,1.20
2019-01-31T10:22:04.446Z,1.15
2019-01-31T10:24:37.036Z,1.18
2019-01-31T10:27:33.937Z,1.05
2019-01-31T10:30:19.881Z,0.96
2019-01-31T10:32:51.729Z,0.97
2019-01-31T10:35:47.601Z,1.05
2019-01-31T10:38:28.668Z,1.32
2019-01-31T10:41:03.093Z,1.50
2019-01-31T10:43:34.485Z,1.63
2019-01-31T10:46:24.289Z,1.06
2019-01-31T10:49:11.352Z,0.52
2019-01-31T10:52:07.527Z,0.81
2019-01-31T10:54:54.567Z,1.18
2019-01-31T10:57:40.396Z,1.25
2019-01-31T11:00:18.532Z,1.21
2019-01-31T11:03:04.661Z,1.08
2019-01-31T11:05:54.761Z,1.25
2019-01-31T11:08:38.331Z,1.18
2019-01-31T11:11:09.153Z,1.10
2019-01-31T11:14:11.290Z,1.26
2019-01-31T11:17:04.572Z,1.37
2019-01-31T11:19:58.131Z,1.59
2019-01-31T11:22:49.552Z,1.76
2019-01-31T11:25:28.383Z,2.03
2019-01-31T11:28:15.430Z,1.93
2019-01-31T11:31:01.631Z,2.35
2019-01-31T11:33:47.712Z,2.46
2019-01-31T11:36:27.580Z,2.54
2019-01-31T11:39:15.418Z,2.66
2019-01-31T11:41:47.186Z,2.74
2019-01-31T11:44:33.277Z,2.85
2019-01-31T11:47:30.392Z,2.80
2019-01-31T11:50:09.079Z,3.07
2019-01-31T11:53:02.425Z,2.96
2019-01-31T11:55:36.059Z,2.92
2019-01-31T11:58:11.585Z,2.68
2019-01-31T12:00:39.516Z,2.85
2019-01-31T12:03:07.291Z,2.96
2019-01-31T12:05:35.999Z,2.81
2019-01-31T12:08:04.353Z,2.21
2019-01-31T12:10:32.453Z,2.24
2019-01-31T12:13:00.281Z,1.98
2019-01-31T12:15:28.039Z,1.73
2019-01-31T12:17:55.821Z,1.44
2019-01-31T12:20:23.601Z,1.69
2019-01-31T12:22:51.427Z,1.90
2019-01-31T12:25:19.365Z,1.47
2019-01-31T12:27:47.138Z,1.18
2019-01-31T12:30:19.479Z,1.00
2019-01-31T12:32:48.805Z,0.90
2019-01-31T12:35:16.569Z,1.16
2019-01-31T12:37:44.321Z,1.16
2019-01-31T12:40:15.934Z,1.10
2019-01-31T12:42:43.700Z,0.99
2019-01-31T12:45:12.826Z,0.90
2019-01-31T12:47:40.795Z,1.20
2019-01-31T12:50:09.891Z,1.46
2019-01-31T12:52:37.742Z,1.71
2019-01-31T12:55:06.568Z,1.91
2019-01-31T12:57:34.406Z,1.96
2019-01-31T13:00:02.157Z,1.87
2019-01-31T13:02:29.912Z,1.78
2019-01-31T13:04:57.683Z,1.98
2019-01-31T13:07:25.458Z,2.01
2019-01-31T13:09:53.536Z,1.81
2019-01-31T13:12:21.693Z,1.46
2019-01-31T13:14:49.458Z,1.15
2019-01-31T13:17:17.813Z,0.79
2019-01-31T13:19:45.592Z,0.78
2019-01-31T13:22:13.351Z,0.71
2019-01-31T13:24:41.114Z,0.70
2019-01-31T13:27:08.966Z,0.65
2019-01-31T13:29:36.717Z,0.71
2019-01-31T13:32:04.585Z,0.84
2019-01-31T13:34:32.340Z,0.92
2019-01-31T13:37:00.183Z,1.10
2019-01-31T13:39:27.942Z,0.70
2019-01-31T13:41:55.703Z,0.85
2019-01-31T13:44:23.582Z,0.85
2019-01-31T13:46:51.471Z,0.91
2019-01-31T13:49:19.489Z,0.84
2019-01-31T13:51:47.271Z,0.33
2019-01-31T13:54:15.113Z,0.20
2019-01-31T13:56:45.538Z,0.25
2019-01-31T13:59:12.502Z,0.18
2019-01-31T14:01:40.256Z,0.20
2019-01-31T14:04:08.025Z,0.10
2019-01-31T14:06:35.781Z,0.17
2019-01-31T14:09:05.332Z,0.10
2019-01-31T14:11:33.089Z,0.12
2019-01-31T14:14:08.749Z,-0.03
2019-01-31T14:16:30.421Z,-0.02
2019-01-31T14:18:58.193Z,-0.03
2019-01-31T14:21:26.090Z,-0.05
2019-01-31T14:23:53.862Z,-0.01
2019-01-31T14:26:21.618Z,-0.16
2019-01-31T14:28:49.386Z,0.03
